Home   Weather   Qatar   Doha   Past weeks
Flag for Qatar

Past Weather in Doha, Qatar — Yesterday and Last 2 Weeks

Currently: 84 °F. Sunny. (Weather station: Doha International Airport, Qatar). See more current weather

Past Weather in Doha — Graph

°F

Doha Temperature Yesterday

Maximum temperature yesterday: 102 °F (at 11:30 am)
Minimum temperature yesterday: 86 °F (at 12:00 am)
Average temperature yesterday: 95 °F

High & Low Weather Summary for the Past Weeks

  Temperature Humidity Pressure
High 108 °F (May 5, 11:30 am) 79% (May 6, 2:30 am) 29.89 "Hg (May 6, 2:30 am)
Low 79 °F (Apr 24, 5:00 am) 11% (May 5, 11:30 am) 29.62 "Hg (May 5, 3:00 am)
Average 89 °F 41% 29.75 "Hg
* Reported Apr 24 5:00 am — May 9 5:30 am, Doha. Weather by CustomWeather, © 2026

Note: Actual official high and low records may vary slightly from our data, if they occured in-between our weather recording intervals... More about our weather records

Doha Weather History for the Previous 24 Hours

Scroll right to see more
  Conditions Comfort    
Time   Temp Weather Wind   Humidity Barometer Visibility
5:30 am
Sat, May 9
84 °F Sunny. 14 mph 48% 29.80 "Hg 10 mi
5:00 am 84 °F Sunny. 14 mph 48% 29.77 "Hg 10 mi
4:30 am 84 °F Clear. 10 mph 48% 29.77 "Hg 10 mi
4:00 am 86 °F Clear. 10 mph 46% 29.74 "Hg 10 mi
3:30 am 86 °F Clear. 10 mph 43% 29.74 "Hg 10 mi
3:00 am 84 °F Clear. 12 mph 48% 29.74 "Hg 10 mi
2:30 am 84 °F Passing clouds. 13 mph 48% 29.74 "Hg N/A
2:00 am 86 °F Clear. 12 mph 43% 29.74 "Hg 10 mi
1:30 am 86 °F Clear. 10 mph 40% 29.74 "Hg 10 mi
1:00 am 88 °F Clear. 9 mph 38% 29.74 "Hg 10 mi
12:30 am 90 °F Clear. 8 mph 33% 29.74 "Hg 10 mi
12:00 am 90 °F Passing clouds. 9 mph 31% 29.77 "Hg N/A
11:30 pm
Fri, May 8
91 °F Clear. 8 mph 30% 29.77 "Hg 10 mi
11:00 pm 91 °F Clear. 9 mph 28% 29.77 "Hg 10 mi
10:30 pm 91 °F Clear. 9 mph 30% 29.77 "Hg 10 mi
10:00 pm 91 °F Clear. 10 mph 32% 29.77 "Hg 10 mi
9:30 pm 90 °F Clear. 10 mph 33% 29.77 "Hg 10 mi
9:00 pm 91 °F Clear. 12 mph 34% 29.77 "Hg 10 mi
8:30 pm 91 °F Clear. 12 mph 34% 29.77 "Hg 10 mi
8:00 pm 91 °F Passing clouds. 10 mph 36% 29.77 "Hg N/A
7:30 pm 91 °F Clear. 14 mph 41% 29.74 "Hg 10 mi
7:00 pm 93 °F Passing clouds. 13 mph 36% 29.74 "Hg N/A
6:30 pm 97 °F Passing clouds. 12 mph 27% 29.74 "Hg N/A
6:00 pm 99 °F Sunny. 14 mph 25% 29.71 "Hg 10 mi
5:30 pm 99 °F Sunny. 17 mph 27% 29.71 "Hg 10 mi
5:00 pm 100 °F Sunny. 17 mph 24% 29.71 "Hg 10 mi
4:30 pm 100 °F Sunny. 20 mph 25% 29.71 "Hg 10 mi
4:00 pm 102 °F Sunny. 18 mph 23% 29.71 "Hg 10 mi
3:30 pm 102 °F Sunny. 21 mph 26% 29.71 "Hg 10 mi
3:00 pm 100 °F Sunny. 20 mph 29% 29.71 "Hg 10 mi
2:30 pm 100 °F Sunny. 20 mph 29% 29.71 "Hg 10 mi
2:00 pm 102 °F Sunny. 18 mph 24% 29.71 "Hg 10 mi
1:30 pm 102 °F Sunny. 18 mph 26% 29.71 "Hg 10 mi
1:00 pm 102 °F Sunny. 18 mph 26% 29.71 "Hg 10 mi
12:30 pm 102 °F Sunny. 20 mph 26% 29.74 "Hg 10 mi
12:00 pm 102 °F Sunny. 20 mph 24% 29.74 "Hg 10 mi
11:30 am 102 °F Sunny. 21 mph 23% 29.74 "Hg 10 mi
11:00 am 100 °F Sunny. 22 mph 25% 29.77 "Hg 10 mi
10:30 am 100 °F Sunny. 22 mph 24% 29.77 "Hg 10 mi
10:00 am 100 °F Sunny. 21 mph 24% 29.77 "Hg 10 mi
9:30 am 100 °F Sunny. 21 mph 25% 29.77 "Hg 10 mi
9:00 am 99 °F Sunny. 20 mph 27% 29.77 "Hg 10 mi
8:30 am 97 °F Sunny. 20 mph 28% 29.77 "Hg 10 mi
8:00 am 95 °F Sunny. 15 mph 30% 29.77 "Hg 10 mi
7:30 am 93 °F Sunny. 13 mph 32% 29.77 "Hg 10 mi
7:00 am 91 °F Sunny. 12 mph 36% 29.77 "Hg 10 mi
6:30 am 91 °F Sunny. 12 mph 34% 29.74 "Hg 10 mi
6:00 am 91 °F Sunny. 14 mph 30% 29.74 "Hg 10 mi
Weather by CustomWeather, © 2026

See weather overview